createdAt,value
2018-05-13T00:02:23.706Z,97395.88
2018-05-13T00:04:51.297Z,97404.14
2018-05-13T00:07:18.953Z,97396.08
2018-05-13T00:09:46.567Z,97398.66
2018-05-13T00:12:14.201Z,97397.09
2018-05-13T00:14:41.817Z,97403.38
2018-05-13T00:17:09.742Z,97392.91
2018-05-13T00:19:37.447Z,97395.80
2018-05-13T00:22:05.375Z,97393.55
2018-05-13T00:24:33.375Z,97391.40
2018-05-13T00:27:01.008Z,97389.43
2018-05-13T00:29:29.044Z,97378.97
2018-05-13T00:31:56.679Z,97395.64
2018-05-13T00:34:24.301Z,97391.64
2018-05-13T00:36:51.926Z,97388.36
2018-05-13T00:39:19.644Z,97386.23
2018-05-13T00:41:47.293Z,97387.55
2018-05-13T00:44:14.899Z,97384.07
2018-05-13T00:46:42.541Z,97383.58
2018-05-13T00:49:10.156Z,97382.92
2018-05-13T00:51:37.764Z,97374.73
2018-05-13T00:54:17.175Z,97379.47
2018-05-13T00:56:44.773Z,97386.13
2018-05-13T00:59:12.401Z,97387.50
2018-05-13T01:01:39.993Z,97381.30
2018-05-13T01:04:07.672Z,97382.25
2018-05-13T01:06:35.310Z,97376.38
2018-05-13T01:09:02.925Z,97370.33
2018-05-13T01:11:30.542Z,97373.44
2018-05-13T01:13:58.142Z,97368.78
2018-05-13T01:16:25.783Z,97375.59
2018-05-13T01:18:53.437Z,97367.45
2018-05-13T01:21:21.262Z,97368.29
2018-05-13T01:23:48.891Z,97368.40
2018-05-13T01:26:16.490Z,97363.31
2018-05-13T01:28:44.145Z,97366.68
2018-05-13T01:31:12.239Z,97365.46
2018-05-13T01:33:39.865Z,97360.67
2018-05-13T01:36:07.577Z,97357.02
2018-05-13T01:38:35.426Z,97353.00
2018-05-13T01:41:03.044Z,97355.94
2018-05-13T01:43:30.639Z,97354.47
2018-05-13T01:45:58.269Z,97350.20
2018-05-13T01:48:25.860Z,97353.69
2018-05-13T01:50:53.502Z,97349.42
2018-05-13T01:53:22.047Z,97346.91
2018-05-13T01:55:50.087Z,97345.05
2018-05-13T01:58:17.690Z,97353.30
2018-05-13T02:00:45.308Z,97348.74
2018-05-13T02:03:12.941Z,97342.91
2018-05-13T02:05:40.562Z,97345.27
2018-05-13T02:08:08.194Z,97341.36
2018-05-13T02:10:35.808Z,97335.67
2018-05-13T02:13:03.777Z,97335.92
2018-05-13T02:15:31.377Z,97341.66
2018-05-13T02:17:58.988Z,97342.55
2018-05-13T02:20:26.786Z,97335.74
2018-05-13T02:22:54.399Z,97340.58
2018-05-13T02:25:22.198Z,97338.25
2018-05-13T02:27:49.809Z,97339.08
2018-05-13T02:30:17.460Z,97341.13
2018-05-13T02:32:45.110Z,97335.34
2018-05-13T02:35:12.714Z,97328.44
2018-05-13T02:37:40.375Z,97334.81
2018-05-13T02:40:08.165Z,97339.33
2018-05-13T02:42:35.975Z,97335.09
2018-05-13T02:45:03.666Z,97334.88
2018-05-13T02:47:31.306Z,97331.48
2018-05-13T02:49:59.638Z,97331.84
2018-05-13T02:52:27.246Z,97331.84
2018-05-13T02:54:56.249Z,97326.00
2018-05-13T02:57:24.312Z,97328.11
2018-05-13T02:59:52.406Z,97326.47
2018-05-13T03:02:20.323Z,97327.44
2018-05-13T03:04:47.991Z,97327.57
2018-05-13T03:07:15.622Z,97328.20
2018-05-13T03:09:43.269Z,97326.70
2018-05-13T03:12:12.613Z,97333.75
2018-05-13T03:14:40.210Z,97333.64
2018-05-13T03:17:07.953Z,97326.88
2018-05-13T03:19:35.553Z,97322.23
2018-05-13T03:22:03.173Z,97328.91
2018-05-13T03:24:30.810Z,97330.75
2018-05-13T03:26:58.423Z,97326.27
2018-05-13T03:29:26.050Z,97326.22
2018-05-13T03:31:53.642Z,97326.27
2018-05-13T03:34:21.272Z,97330.08
2018-05-13T03:36:48.873Z,97326.40
2018-05-13T03:39:16.482Z,97322.18
2018-05-13T03:41:44.112Z,97325.67
2018-05-13T03:44:11.704Z,97330.05
2018-05-13T03:46:39.324Z,97331.69
2018-05-13T03:49:06.943Z,97328.22
2018-05-13T03:51:34.685Z,97330.86
2018-05-13T03:54:02.286Z,97332.83
2018-05-13T03:56:29.891Z,97335.77
2018-05-13T03:58:57.599Z,97326.00
2018-05-13T04:01:25.209Z,97328.63
2018-05-13T04:03:52.880Z,97320.86
2018-05-13T04:06:20.532Z,97325.13
2018-05-13T04:08:59.752Z,97327.78
2018-05-13T04:11:39.170Z,97329.82
2018-05-13T04:14:18.601Z,97332.66
2018-05-13T04:16:46.199Z,97329.17
2018-05-13T04:19:14.145Z,97327.17
2018-05-13T04:21:41.742Z,97328.39
2018-05-13T04:24:09.353Z,97325.78
2018-05-13T04:26:36.981Z,97325.49
2018-05-13T04:29:04.597Z,97325.67
2018-05-13T04:31:32.233Z,97334.49
2018-05-13T04:33:59.832Z,97330.94
2018-05-13T04:36:27.479Z,97329.11
2018-05-13T04:38:55.113Z,97339.14
2018-05-13T04:41:22.713Z,97344.48
2018-05-13T04:43:50.341Z,97347.38
2018-05-13T04:46:17.941Z,97347.53
2018-05-13T04:48:45.566Z,97349.47
2018-05-13T04:51:13.172Z,97345.38
2018-05-13T04:53:41.015Z,97344.26
2018-05-13T04:56:08.629Z,97347.05
2018-05-13T04:58:36.220Z,97348.77
2018-05-13T05:01:03.837Z,97348.41
2018-05-13T05:03:31.430Z,97343.96
2018-05-13T05:05:59.071Z,97335.89
2018-05-13T05:08:26.982Z,97332.54
2018-05-13T05:10:54.596Z,97327.52
2018-05-13T05:13:22.222Z,97327.98
2018-05-13T05:15:49.822Z,97335.70
2018-05-13T05:18:17.445Z,97337.68
2018-05-13T05:20:45.061Z,97332.87
2018-05-13T05:23:12.684Z,97333.55
2018-05-13T05:25:40.339Z,97331.76
2018-05-13T05:28:07.941Z,97335.25
2018-05-13T05:30:35.563Z,97337.04
2018-05-13T05:33:03.162Z,97334.13
2018-05-13T05:35:30.782Z,97334.37
2018-05-13T05:37:58.382Z,97332.06
2018-05-13T05:40:25.978Z,97331.84
2018-05-13T05:42:53.614Z,97335.75
2018-05-13T05:45:21.208Z,97332.21
2018-05-13T05:47:48.829Z,97330.69
2018-05-13T05:50:16.422Z,97329.72
2018-05-13T05:52:44.038Z,97332.22
2018-05-13T05:55:11.672Z,97339.42
2018-05-13T05:57:39.284Z,97341.08
2018-05-13T06:00:06.912Z,97337.78
2018-05-13T06:02:34.511Z,97341.91
2018-05-13T06:05:02.114Z,97344.50
2018-05-13T06:07:29.728Z,97342.98
2018-05-13T06:09:57.330Z,97343.00
2018-05-13T06:12:24.978Z,97347.14
2018-05-13T06:14:52.586Z,97342.30
2018-05-13T06:17:20.207Z,97341.03
2018-05-13T06:19:47.828Z,97342.47
2018-05-13T06:22:15.428Z,97340.02
2018-05-13T06:24:43.187Z,97340.30
2018-05-13T06:27:10.800Z,97340.50
2018-05-13T06:29:38.740Z,97336.40
2018-05-13T06:32:06.338Z,97331.79
2018-05-13T06:34:33.942Z,97332.30
2018-05-13T06:37:02.224Z,97337.68
2018-05-13T06:39:29.877Z,97330.88
2018-05-13T06:41:57.474Z,97331.12
2018-05-13T06:44:25.086Z,97331.32
2018-05-13T06:46:52.824Z,97327.02
2018-05-13T06:49:20.429Z,97329.91
2018-05-13T06:51:48.027Z,97333.87
2018-05-13T06:54:15.668Z,97329.06
2018-05-13T06:56:43.297Z,97322.15
2018-05-13T06:59:10.996Z,97316.27
2018-05-13T07:01:38.599Z,97319.86
2018-05-13T07:04:06.513Z,97314.56
2018-05-13T07:06:34.183Z,97311.52
2018-05-13T07:09:01.781Z,97311.05
2018-05-13T07:11:29.397Z,97312.23
2018-05-13T07:13:56.997Z,97307.35
2018-05-13T07:16:24.809Z,97312.16
2018-05-13T07:18:52.336Z,97319.01
2018-05-13T07:21:20.157Z,97308.72
2018-05-13T07:23:47.764Z,97304.95
2018-05-13T07:26:15.378Z,97300.11
2018-05-13T07:28:43.002Z,97291.30
2018-05-13T07:31:10.605Z,97290.38
2018-05-13T07:33:38.232Z,97290.06
2018-05-13T07:36:05.830Z,97292.27
2018-05-13T07:38:33.701Z,97286.43
2018-05-13T07:41:01.305Z,97285.30
2018-05-13T07:43:29.004Z,97284.62
2018-05-13T07:45:56.574Z,97278.61
2018-05-13T07:48:24.195Z,97275.80
2018-05-13T07:50:51.821Z,97281.69
2018-05-13T07:53:19.443Z,97271.39
2018-05-13T07:55:47.323Z,97284.16
2018-05-13T07:58:14.912Z,97275.34
2018-05-13T08:00:42.501Z,97268.68
2018-05-13T08:03:10.125Z,97262.48
2018-05-13T08:05:37.718Z,97257.02
2018-05-13T08:08:05.341Z,97257.47
2018-05-13T08:10:32.944Z,97265.34
2018-05-13T08:13:00.665Z,97263.97
2018-05-13T08:15:28.275Z,97256.78
2018-05-13T08:17:55.870Z,97256.02
2018-05-13T08:20:23.600Z,97251.34
2018-05-13T08:22:51.164Z,97252.91
2018-05-13T08:25:18.785Z,97249.39
2018-05-13T08:27:46.403Z,97249.96
2018-05-13T08:30:13.999Z,97247.63
2018-05-13T08:32:41.707Z,97244.09
2018-05-13T08:35:09.324Z,97243.91
2018-05-13T08:37:37.088Z,97239.38
2018-05-13T08:40:04.704Z,97235.64
2018-05-13T08:42:32.319Z,97237.04
2018-05-13T08:44:59.935Z,97233.91
2018-05-13T08:47:27.602Z,97233.30
2018-05-13T08:49:55.278Z,97237.01
2018-05-13T08:52:22.840Z,97231.71
2018-05-13T08:54:50.740Z,97232.69
2018-05-13T08:57:18.341Z,97237.78
2018-05-13T08:59:45.993Z,97220.66
2018-05-13T09:02:13.569Z,97224.77
2018-05-13T09:04:41.166Z,97219.41
2018-05-13T09:07:08.912Z,97221.56
2018-05-13T09:09:36.521Z,97222.34
2018-05-13T09:12:04.113Z,97222.09
2018-05-13T09:14:31.823Z,97216.53
2018-05-13T09:16:59.379Z,97211.62
2018-05-13T09:19:27.152Z,97215.90
2018-05-13T09:21:54.819Z,97206.63
2018-05-13T09:24:22.429Z,97198.34
2018-05-13T09:26:50.054Z,97198.55
2018-05-13T09:29:17.657Z,97192.25
2018-05-13T09:31:45.302Z,97193.01
2018-05-13T09:34:12.901Z,97193.70
2018-05-13T09:36:40.554Z,97181.70
2018-05-13T09:39:08.624Z,97182.03
2018-05-13T09:41:36.216Z,97172.91
2018-05-13T09:44:03.844Z,97174.78
2018-05-13T09:46:31.447Z,97177.72
2018-05-13T09:48:59.071Z,97176.16
2018-05-13T09:51:26.687Z,97174.17
2018-05-13T09:53:54.532Z,97174.09
2018-05-13T09:56:22.137Z,97171.88
2018-05-13T09:58:49.757Z,97167.66
2018-05-13T10:01:17.398Z,97169.33
2018-05-13T10:03:45.002Z,97163.13
2018-05-13T10:06:12.618Z,97161.47
2018-05-13T10:08:40.209Z,97160.73
2018-05-13T10:11:07.878Z,97160.74
2018-05-13T10:13:35.567Z,97147.41
2018-05-13T10:16:03.291Z,97152.83
2018-05-13T10:18:30.926Z,97153.80
2018-05-13T10:20:58.521Z,97151.30
2018-05-13T10:23:26.137Z,97147.38
2018-05-13T10:25:53.780Z,97144.27
2018-05-13T10:28:21.696Z,97141.48
2018-05-13T10:30:49.331Z,97142.89
2018-05-13T10:33:16.934Z,97133.02
2018-05-13T10:35:44.598Z,97135.69
2018-05-13T10:38:12.458Z,97135.02
2018-05-13T10:40:40.436Z,97128.66
2018-05-13T10:43:08.083Z,97127.06
2018-05-13T10:45:35.853Z,97122.95
2018-05-13T10:48:03.453Z,97118.33
2018-05-13T10:50:31.043Z,97114.86
2018-05-13T10:52:58.660Z,97111.24
2018-05-13T10:55:26.262Z,97107.88
2018-05-13T10:57:53.984Z,97108.16
2018-05-13T11:00:21.595Z,97116.56
2018-05-13T11:02:49.349Z,97111.08
2018-05-13T11:05:19.677Z,97111.30
2018-05-13T11:07:47.735Z,97109.55
2018-05-13T11:10:15.473Z,97101.40
2018-05-13T11:12:44.345Z,97099.88
2018-05-13T11:15:12.464Z,97097.73
2018-05-13T11:17:40.308Z,97086.78
2018-05-13T11:20:08.994Z,97089.32
2018-05-13T11:22:37.126Z,97089.19
2018-05-13T11:25:04.877Z,97090.77
2018-05-13T11:27:32.660Z,97091.14
2018-05-13T11:30:00.325Z,97087.67
2018-05-13T11:32:28.131Z,97084.53
2018-05-13T11:34:55.732Z,97074.47
2018-05-13T11:37:23.755Z,97070.70
2018-05-13T11:39:51.538Z,97070.98
2018-05-13T11:42:19.050Z,97066.50
2018-05-13T11:44:46.663Z,97067.11
2018-05-13T11:47:14.346Z,97059.53
2018-05-13T11:49:42.117Z,97053.48
2018-05-13T11:52:09.835Z,97061.02
2018-05-13T11:54:37.903Z,97050.75
2018-05-13T11:57:05.630Z,97048.47
2018-05-13T11:59:33.225Z,97051.31
2018-05-13T12:02:00.941Z,97046.23
2018-05-13T12:04:28.558Z,97043.08
2018-05-13T12:06:56.186Z,97040.59
2018-05-13T12:09:23.824Z,97033.41
2018-05-13T12:11:51.744Z,97034.50
2018-05-13T12:14:19.382Z,97030.30
2018-05-13T12:16:46.986Z,97028.43
2018-05-13T12:19:14.626Z,97015.64
2018-05-13T12:21:42.379Z,97008.31
2018-05-13T12:24:10.034Z,97000.17
2018-05-13T12:26:37.630Z,97002.59
2018-05-13T12:29:05.263Z,97000.84
2018-05-13T12:31:32.971Z,97002.54
2018-05-13T12:34:00.558Z,96998.42
2018-05-13T12:36:28.182Z,96987.34
2018-05-13T12:38:55.778Z,96987.34
2018-05-13T12:41:23.595Z,96980.70
2018-05-13T12:43:51.222Z,96980.88
2018-05-13T12:46:18.854Z,96970.45
2018-05-13T12:48:46.459Z,96978.88
2018-05-13T12:51:14.052Z,96966.06
2018-05-13T12:53:41.798Z,96966.19
2018-05-13T12:56:09.440Z,96962.71
2018-05-13T12:58:37.064Z,96961.47
2018-05-13T13:01:04.696Z,96957.06
2018-05-13T13:03:32.651Z,96947.45
2018-05-13T13:06:00.238Z,96941.73
2018-05-13T13:08:27.823Z,96943.23
2018-05-13T13:10:55.451Z,96941.06
2018-05-13T13:13:23.045Z,96922.16
2018-05-13T13:15:50.680Z,96926.52
2018-05-13T13:18:18.273Z,96924.69
2018-05-13T13:20:45.936Z,96922.78
2018-05-13T13:23:13.792Z,96908.55
2018-05-13T13:25:41.443Z,96907.73
2018-05-13T13:28:09.102Z,96902.91
2018-05-13T13:30:36.867Z,96899.39
2018-05-13T13:33:04.901Z,96900.67
2018-05-13T13:35:32.671Z,96895.41
2018-05-13T13:38:00.301Z,96893.00
2018-05-13T13:40:27.909Z,96879.68
2018-05-13T13:42:55.501Z,96884.32
2018-05-13T13:45:23.158Z,96883.39
2018-05-13T13:47:50.774Z,96886.31
2018-05-13T13:50:18.406Z,96892.00
2018-05-13T13:52:46.026Z,96886.86
2018-05-13T13:55:13.779Z,96885.42
2018-05-13T13:57:41.381Z,96878.96
2018-05-13T14:00:08.998Z,96890.34
2018-05-13T14:02:36.629Z,96883.84
2018-05-13T14:05:04.293Z,96877.40
2018-05-13T14:07:31.974Z,96882.44
2018-05-13T14:09:59.594Z,96873.08
2018-05-13T14:12:27.315Z,96874.06
2018-05-13T14:14:55.119Z,96871.31
2018-05-13T14:17:22.718Z,96867.14
2018-05-13T14:19:50.346Z,96865.69
2018-05-13T14:22:18.016Z,96866.21
2018-05-13T14:24:45.670Z,96864.72
2018-05-13T14:27:13.270Z,96863.86
2018-05-13T14:29:41.146Z,96858.56
2018-05-13T14:32:08.758Z,96871.18
2018-05-13T14:34:36.352Z,96875.80
2018-05-13T14:37:03.992Z,96875.63
2018-05-13T14:39:31.589Z,96879.68
2018-05-13T14:41:59.209Z,96885.70
2018-05-13T14:44:26.810Z,96878.47
2018-05-13T14:46:54.676Z,96884.27
2018-05-13T14:49:22.273Z,96887.48
2018-05-13T14:51:49.916Z,96884.42
2018-05-13T14:54:17.537Z,96880.81
2018-05-13T14:56:45.134Z,96883.53
2018-05-13T14:59:12.778Z,96888.55
2018-05-13T15:01:40.410Z,96884.95
2018-05-13T15:04:08.022Z,96875.55
2018-05-13T15:06:35.618Z,96871.61
2018-05-13T15:09:03.254Z,96871.23
2018-05-13T15:11:30.859Z,96860.80
2018-05-13T15:13:58.492Z,96858.34
2018-05-13T15:16:26.186Z,96860.75
2018-05-13T15:18:54.051Z,96857.67
2018-05-13T15:21:21.746Z,96855.84
2018-05-13T15:23:49.524Z,96856.30
2018-05-13T15:26:17.140Z,96864.58
2018-05-13T15:28:44.742Z,96861.88
2018-05-13T15:31:12.406Z,96861.84
2018-05-13T15:33:40.013Z,96860.22
2018-05-13T15:36:07.831Z,96861.08
2018-05-13T15:38:35.446Z,96869.27
2018-05-13T15:41:03.043Z,96864.41
2018-05-13T15:43:30.671Z,96867.81
2018-05-13T15:45:58.267Z,96873.35
2018-05-13T15:48:25.894Z,96870.41
2018-05-13T15:50:53.486Z,96879.17
2018-05-13T15:53:21.098Z,96868.20
2018-05-13T15:55:48.710Z,96871.38
2018-05-13T15:58:16.307Z,96871.89
2018-05-13T16:00:43.925Z,96866.98
2018-05-13T16:03:11.529Z,96874.10
2018-05-13T16:05:39.164Z,96867.22
2018-05-13T16:08:06.937Z,96868.05
2018-05-13T16:10:34.523Z,96864.80
2018-05-13T16:13:02.138Z,96866.80
2018-05-13T16:15:29.846Z,96861.14
2018-05-13T16:17:57.474Z,96860.73
2018-05-13T16:20:26.773Z,96863.09
2018-05-13T16:22:54.559Z,96857.81
2018-05-13T16:25:22.147Z,96866.72
2018-05-13T16:27:49.756Z,96865.38
2018-05-13T16:30:17.465Z,96873.47
2018-05-13T16:32:45.023Z,96873.50
2018-05-13T16:35:12.706Z,96873.40
2018-05-13T16:37:40.325Z,96874.20
2018-05-13T16:40:07.989Z,96871.49
2018-05-13T16:42:35.579Z,96865.01
2018-05-13T16:45:03.174Z,96865.40
2018-05-13T16:47:30.791Z,96863.27
2018-05-13T16:49:58.413Z,96865.04
2018-05-13T16:52:26.057Z,96863.09
2018-05-13T16:54:53.756Z,96869.36
2018-05-13T16:57:21.390Z,96872.70
2018-05-13T16:59:48.992Z,96879.99
2018-05-13T17:02:17.748Z,96892.59
2018-05-13T17:04:45.375Z,96887.92
2018-05-13T17:07:12.969Z,96890.22
2018-05-13T17:09:40.645Z,96888.21
2018-05-13T17:12:08.210Z,96888.60
2018-05-13T17:14:35.827Z,96889.34
2018-05-13T17:17:03.487Z,96889.27
2018-05-13T17:19:31.406Z,96898.07
2018-05-13T17:21:59.055Z,96890.16
2018-05-13T17:24:26.643Z,96897.98
2018-05-13T17:26:54.275Z,96902.50
2018-05-13T17:29:21.872Z,96909.94
2018-05-13T17:31:49.488Z,96915.22
2018-05-13T17:34:17.157Z,96927.13
2018-05-13T17:36:44.737Z,96932.22
2018-05-13T17:39:12.768Z,96932.56
2018-05-13T17:41:40.386Z,96939.56
2018-05-13T17:44:07.988Z,96947.61
2018-05-13T17:46:35.893Z,96947.78
2018-05-13T17:49:03.526Z,96954.63
2018-05-13T17:51:31.141Z,96961.26
2018-05-13T17:53:58.763Z,96964.00
2018-05-13T17:56:26.359Z,96968.72
2018-05-13T17:58:53.988Z,96970.39
2018-05-13T18:01:21.587Z,96968.63
2018-05-13T18:03:49.558Z,96972.55
2018-05-13T18:06:17.182Z,96976.02
2018-05-13T18:08:45.108Z,96976.27
2018-05-13T18:11:12.686Z,96970.83
2018-05-13T18:13:40.289Z,96975.97
2018-05-13T18:16:07.924Z,96979.83
2018-05-13T18:18:35.537Z,96978.18
2018-05-13T18:21:03.590Z,96973.59
2018-05-13T18:23:31.341Z,96971.34
2018-05-13T18:25:59.178Z,96966.34
2018-05-13T18:28:26.802Z,96973.91
2018-05-13T18:30:54.549Z,96969.86
2018-05-13T18:33:22.165Z,96967.59
2018-05-13T18:35:49.765Z,96964.38
2018-05-13T18:38:17.412Z,96962.07
2018-05-13T18:40:45.027Z,96964.62
2018-05-13T18:43:12.634Z,96961.00
2018-05-13T18:45:40.256Z,96951.48
2018-05-13T18:48:07.870Z,96960.00
2018-05-13T18:50:35.490Z,96960.59
2018-05-13T18:53:03.101Z,96953.54
2018-05-13T18:55:30.727Z,96961.29
2018-05-13T18:57:58.578Z,96956.32
2018-05-13T19:00:26.317Z,96960.23
2018-05-13T19:02:53.923Z,96962.72
2018-05-13T19:05:21.542Z,96955.17
2018-05-13T19:07:49.171Z,96968.39
2018-05-13T19:10:16.791Z,96968.98
2018-05-13T19:12:44.723Z,96968.80
2018-05-13T19:15:12.325Z,96968.64
2018-05-13T19:17:39.938Z,96969.58
2018-05-13T19:20:07.564Z,96969.03
2018-05-13T19:22:35.174Z,96973.19
2018-05-13T19:25:02.802Z,96977.88
2018-05-13T19:27:30.413Z,96980.22
2018-05-13T19:29:58.055Z,96973.72
2018-05-13T19:32:25.670Z,96971.75
2018-05-13T19:34:53.335Z,96981.81
2018-05-13T19:37:20.993Z,96978.72
2018-05-13T19:39:48.588Z,96988.35
2018-05-13T19:42:16.218Z,97000.12
2018-05-13T19:44:43.860Z,97008.78
2018-05-13T19:47:11.485Z,97005.87
2018-05-13T19:49:39.091Z,96991.17
2018-05-13T19:52:06.717Z,96996.05
2018-05-13T19:54:34.315Z,97012.58
2018-05-13T19:57:02.101Z,97023.50
2018-05-13T19:59:30.311Z,97000.77
2018-05-13T20:01:57.944Z,97010.70
2018-05-13T20:04:25.580Z,97002.71
2018-05-13T20:06:53.236Z,97000.33
2018-05-13T20:09:20.922Z,97004.71
2018-05-13T20:11:48.466Z,97008.06
2018-05-13T20:14:16.101Z,97012.95
2018-05-13T20:16:43.696Z,97011.93
2018-05-13T20:19:11.313Z,97014.73
2018-05-13T20:21:39.071Z,97008.93
2018-05-13T20:24:06.701Z,97010.30
2018-05-13T20:26:34.301Z,97006.09
2018-05-13T20:29:02.058Z,97011.45
2018-05-13T20:31:29.658Z,97012.41
2018-05-13T20:33:57.286Z,97002.56
2018-05-13T20:36:24.958Z,97000.67
2018-05-13T20:38:52.579Z,96999.25
2018-05-13T20:41:20.213Z,97007.81
2018-05-13T20:43:47.802Z,97001.46
2018-05-13T20:46:15.698Z,97001.55
2018-05-13T20:48:43.405Z,97003.11
2018-05-13T20:51:11.040Z,97004.80
2018-05-13T20:53:38.690Z,97002.08
2018-05-13T20:56:06.299Z,97003.16
2018-05-13T20:58:33.926Z,96996.52
2018-05-13T21:01:01.521Z,96991.90
2018-05-13T21:03:29.329Z,96991.88
2018-05-13T21:05:56.929Z,96994.09
2018-05-13T21:08:24.542Z,96988.86
2018-05-13T21:10:52.171Z,96983.48
2018-05-13T21:13:19.779Z,96989.70
2018-05-13T21:15:47.421Z,96982.09
2018-05-13T21:18:15.050Z,96979.93
2018-05-13T21:20:42.860Z,96974.59
2018-05-13T21:23:10.471Z,96975.55
2018-05-13T21:25:38.105Z,96971.29
2018-05-13T21:28:05.746Z,96983.41
2018-05-13T21:30:33.334Z,96973.00
2018-05-13T21:33:00.958Z,96978.22
2018-05-13T21:35:28.579Z,96978.86
2018-05-13T21:37:56.498Z,96973.20
2018-05-13T21:40:24.124Z,96976.63
2018-05-13T21:42:51.734Z,96985.86
2018-05-13T21:45:19.375Z,96983.76
2018-05-13T21:47:46.982Z,96981.02
2018-05-13T21:50:14.614Z,96975.98
2018-05-13T21:52:42.208Z,96974.91
2018-05-13T21:55:10.345Z,96982.73
2018-05-13T21:57:37.977Z,96983.23
2018-05-13T22:00:05.578Z,96981.44
2018-05-13T22:02:33.200Z,96985.52
2018-05-13T22:05:00.816Z,96994.66
2018-05-13T22:07:28.469Z,97003.55
2018-05-13T22:09:56.090Z,97013.75
2018-05-13T22:12:23.746Z,97024.02
2018-05-13T22:14:51.345Z,97029.36
2018-05-13T22:17:18.950Z,97028.92
2018-05-13T22:19:46.578Z,97025.08
2018-05-13T22:22:14.181Z,97022.95
2018-05-13T22:24:41.806Z,97035.13
2018-05-13T22:27:09.515Z,97051.55
2018-05-13T22:29:37.172Z,97035.83
2018-05-13T22:32:04.805Z,97031.75
2018-05-13T22:34:32.448Z,97029.47
2018-05-13T22:37:00.094Z,97031.42
2018-05-13T22:39:27.699Z,97032.41
2018-05-13T22:41:55.325Z,97037.19
2018-05-13T22:44:22.930Z,97037.32
2018-05-13T22:46:50.843Z,97043.14
2018-05-13T22:49:18.441Z,97040.54
2018-05-13T22:51:46.069Z,97038.30
2018-05-13T22:54:13.696Z,97035.05
2018-05-13T22:56:41.285Z,97037.90
2018-05-13T22:59:08.905Z,97036.72
2018-05-13T23:01:36.495Z,97041.08
2018-05-13T23:04:04.124Z,97048.61
2018-05-13T23:06:31.733Z,97047.77
2018-05-13T23:08:59.604Z,97048.12
2018-05-13T23:11:27.212Z,97056.98
2018-05-13T23:13:54.822Z,97054.73
2018-05-13T23:16:22.458Z,97050.55
2018-05-13T23:18:50.053Z,97057.56
2018-05-13T23:21:17.680Z,97050.75
2018-05-13T23:23:45.292Z,97051.48
2018-05-13T23:26:13.071Z,97045.77
2018-05-13T23:28:40.665Z,97043.83
2018-05-13T23:31:08.249Z,97040.89
2018-05-13T23:33:35.858Z,97044.63
2018-05-13T23:36:03.445Z,97039.48
2018-05-13T23:38:31.073Z,97046.64
2018-05-13T23:40:58.678Z,97044.43
2018-05-13T23:43:26.535Z,97043.14
2018-05-13T23:45:54.097Z,97037.83
2018-05-13T23:48:21.685Z,97040.83
2018-05-13T23:50:49.312Z,97040.12
2018-05-13T23:53:16.964Z,97030.97
2018-05-13T23:55:44.688Z,97042.36
2018-05-13T23:58:12.331Z,97031.61
